This demonstration page uses our WeatherBlox Daily Observations layout. Learn more.

Left ArrowRight Arrow

Hourly Observations for April 17, 2021

Temp ( °F °C ) Dew Point ( °F °C ) Humidity (%) Winds ( mph kmh ) Pressure ( in mb ) Visibility ( mi km ) Precip ( " mm )
12:53 am 00:53 Clear 36 2.2 23 -5 59 59 Calm 30.3 1026 10 16.0934 0 0
1:53 am 01:53 Clear 31 -0.6 18 -7.8 59 59 WSW 8 13 30.3 1026 10 16.0934 0 0
2:53 am 02:53 Clear 27 -2.8 15 -9.4 61 61 W 6 9 30.29 1026 10 16.0934 0 0
3:53 am 03:53 Clear 26 -3.3 15 -9.4 63 63 W 6 9 30.29 1026 10 16.0934 0 0
4:53 am 04:53 Clear 26 -3.3 16 -8.9 66 66 W 6 9 30.29 1026 10 16.0934 0 0
5:53 am 05:53 Clear 24 -4.4 17 -8.3 75 75 W 8 13 30.3 1026 10 16.0934 0 0
6:53 am 06:53 Sunny 25 -3.9 19 -7.2 78 78 W 7 11 30.3 1026 10 16.0934 0 0
7:53 am 07:53 Sunny 31 -0.6 21 -6.1 67 67 W 6 9 30.29 1026 10 16.0934 0 0
8:53 am 08:53 Sunny 43 6.1 26 -3.3 51 51 SW 17 28 30.27 1025 10 16.0934 0 0
9:53 am 09:53 Sunny 50 10 25 -3.9 38 38 SW 15 24 30.26 1025 10 16.0934 0 0
10:53 am 10:53 Sunny 56 13.3 23 -5 28 28 WSW 12 19 30.24 1024 10 16.0934 0 0
11:53 am 11:53 Sunny 59 15 21 -6.1 23 23 WSW 9 15 30.24 1024 10 16.0934 0 0
12:53 pm 12:53 Sunny 63 17.2 21 -6.1 20 20 SW 7 11 30.2 1023 10 16.0934 0 0
1:53 pm 13:53 Sunny 66 18.9 19 -7.2 16 16 WSW 10 17 30.18 1022 10 16.0934 0 0
2:53 pm 14:53 Sunny 67 19.4 18 -7.8 15 15 W 10 17 30.16 1021 10 16.0934 0 0
3:53 pm 15:53 Sunny 69 20.6 19 -7.2 15 15 undefined N/A 30.13 1020 10 16.0934 0 0
4:53 pm 16:53 Sunny 70 21.1 17 -8.3 13 13 NW 18 30 30.11 1020 10 16.0934 0 0
5:53 pm 17:53 Sunny 69 20.6 17 -8.3 14 14 WNW 14 22 30.1 1019 10 16.0934 0 0
6:53 pm 18:53 Sunny 68 20 17 -8.3 14 14 NNW 13 20 30.09 1019 10 16.0934 0 0
7:53 pm 19:53 Sunny 62 16.7 18 -7.8 18 18 NW 8 13 30.08 1019 10 16.0934 0 0
8:53 pm 20:53 Clear 56 13.3 19 -7.2 24 24 WNW 5 7 30.08 1019 10 16.0934 0 0
9:53 pm 21:53 Clear 47 8.3 19 -7.2 33 33 SSW 6 9 30.09 1019 10 16.0934 0 0
10:53 pm 22:53 Clear 44 6.7 20 -6.7 38 38 SW 5 7 30.09 1019 10 16.0934 0 0
11:53 pm 23:53 Clear 40 4.4 20 -6.7 45 45 VRB 3 6 30.11 1020 10 16.0934 0 0

Powered by AerisWeather